createdAt,value
2022-09-07T00:01:47.130Z,15.46
2022-09-07T00:04:16.284Z,15.39
2022-09-07T00:06:45.228Z,15.37
2022-09-07T00:09:15.666Z,15.33
2022-09-07T00:11:47.674Z,15.34
2022-09-07T00:14:14.567Z,15.35
2022-09-07T00:16:44.345Z,15.37
2022-09-07T00:19:14.343Z,15.38
2022-09-07T00:21:41.369Z,15.37
2022-09-07T00:24:08.801Z,15.38
2022-09-07T00:26:37.690Z,15.39
2022-09-07T00:29:10.679Z,15.37
2022-09-07T00:31:38.099Z,15.35
2022-09-07T00:34:06.100Z,15.32
2022-09-07T00:36:33.248Z,15.32
2022-09-07T00:39:01.286Z,15.33
2022-09-07T00:41:29.352Z,15.35
2022-09-07T00:43:58.795Z,15.36
2022-09-07T00:46:28.751Z,15.37
2022-09-07T00:48:58.689Z,15.32
2022-09-07T00:51:29.198Z,15.29
2022-09-07T00:54:02.266Z,15.27
2022-09-07T00:56:34.837Z,15.23
2022-09-07T00:59:05.213Z,15.19
2022-09-07T01:01:33.824Z,15.15
2022-09-07T01:04:03.872Z,15.12
2022-09-07T01:06:37.628Z,15.11
2022-09-07T01:09:35.064Z,15.12
2022-09-07T01:12:18.823Z,15.13
2022-09-07T01:14:50.225Z,15.16
2022-09-07T01:17:27.862Z,15.18
2022-09-07T01:20:09.960Z,15.14
2022-09-07T01:22:36.951Z,15.09
2022-09-07T01:25:16.473Z,15.05
2022-09-07T01:28:00.436Z,14.99
2022-09-07T01:30:27.420Z,14.94
2022-09-07T01:33:05.251Z,14.91
2022-09-07T01:36:05.662Z,14.88
2022-09-07T01:38:39.122Z,14.92
2022-09-07T01:41:23.739Z,14.94
2022-09-07T01:44:06.657Z,14.96
2022-09-07T01:46:51.737Z,14.95
2022-09-07T01:49:36.051Z,14.92
2022-09-07T01:52:10.014Z,14.91
2022-09-07T01:54:52.370Z,14.93
2022-09-07T01:57:27.628Z,14.93
2022-09-07T02:00:08.016Z,14.96
2022-09-07T02:02:42.608Z,14.92
2022-09-07T02:05:38.728Z,14.88
2022-09-07T02:08:06.170Z,14.81
2022-09-07T02:10:39.577Z,14.76
2022-09-07T02:13:17.080Z,14.75
2022-09-07T02:16:03.394Z,14.76
2022-09-07T02:18:39.119Z,14.73
2022-09-07T02:24:05.971Z,14.77
2022-09-07T02:26:45.666Z,14.79
2022-09-07T02:29:18.882Z,14.80
2022-09-07T02:31:46.912Z,14.79
2022-09-07T02:34:18.387Z,14.76
2022-09-07T02:36:47.311Z,14.71
2022-09-07T02:39:16.936Z,14.67
2022-09-07T02:41:45.955Z,14.54
2022-09-07T02:44:19.119Z,14.06
2022-09-07T02:46:51.901Z,13.86
2022-09-07T02:49:22.270Z,14.10
2022-09-07T02:52:20.038Z,14.20
2022-09-07T02:55:04.514Z,14.14
2022-09-07T02:57:50.907Z,14.12
2022-09-07T03:00:25.855Z,14.27
2022-09-07T03:03:07.525Z,14.35
2022-09-07T03:05:37.618Z,14.45
2022-09-07T03:08:13.274Z,14.52
2022-09-07T03:10:41.023Z,14.59
2022-09-07T03:13:26.481Z,14.65
2022-09-07T03:15:58.078Z,14.69
2022-09-07T03:18:26.185Z,14.72
2022-09-07T03:20:56.297Z,14.74
2022-09-07T03:23:23.910Z,14.76
2022-09-07T03:25:53.084Z,14.76
2022-09-07T03:28:28.175Z,14.76
2022-09-07T03:31:04.072Z,14.75
2022-09-07T03:33:33.960Z,14.74
2022-09-07T03:36:02.600Z,14.73
2022-09-07T03:38:44.758Z,14.75
2022-09-07T03:41:16.977Z,14.75
2022-09-07T03:43:54.759Z,14.76
2022-09-07T03:46:21.985Z,14.76
2022-09-07T03:49:17.409Z,14.75
2022-09-07T03:51:47.976Z,14.79
2022-09-07T03:54:14.736Z,14.82
2022-09-07T03:56:44.217Z,14.84
2022-09-07T03:59:13.845Z,14.85
2022-09-07T04:01:45.596Z,14.88
2022-09-07T04:04:12.648Z,14.88
2022-09-07T04:06:42.781Z,14.86
2022-09-07T04:09:21.456Z,14.81
2022-09-07T04:11:48.412Z,14.76
2022-09-07T04:14:15.753Z,14.76
2022-09-07T04:16:44.942Z,14.77
2022-09-07T04:19:11.945Z,14.73
2022-09-07T04:21:38.774Z,14.73
2022-09-07T04:24:09.751Z,14.73
2022-09-07T04:26:38.910Z,14.72
2022-09-07T04:29:06.410Z,14.70
2022-09-07T04:31:35.881Z,14.67
2022-09-07T04:34:03.527Z,14.62
2022-09-07T04:36:30.677Z,14.58
2022-09-07T04:38:59.253Z,14.55
2022-09-07T04:41:34.395Z,14.54
2022-09-07T04:44:04.561Z,14.53
2022-09-07T04:46:35.351Z,14.55
2022-09-07T04:49:05.811Z,14.57
2022-09-07T04:51:34.347Z,14.58
2022-09-07T04:54:02.337Z,14.61
2022-09-07T04:56:29.820Z,14.61
2022-09-07T04:58:56.753Z,14.61
2022-09-07T05:01:25.741Z,14.61
2022-09-07T05:03:52.885Z,14.61
2022-09-07T05:06:20.874Z,14.60
2022-09-07T05:08:53.691Z,14.60
2022-09-07T05:11:36.960Z,14.67
2022-09-07T05:14:07.842Z,14.74
2022-09-07T05:16:35.229Z,14.79
2022-09-07T05:19:04.462Z,14.80
2022-09-07T05:21:33.900Z,14.79
2022-09-07T05:24:01.295Z,14.77
2022-09-07T05:26:29.327Z,14.74
2022-09-07T05:31:42.981Z,14.71
2022-09-07T05:34:31.890Z,14.68
2022-09-07T05:36:59.932Z,14.70
2022-09-07T05:39:26.999Z,14.71
2022-09-07T05:41:54.579Z,14.69
2022-09-07T05:47:08.462Z,14.74
2022-09-07T05:49:35.433Z,14.76
2022-09-07T05:52:02.446Z,14.76
2022-09-07T05:54:29.382Z,14.72
2022-09-07T05:56:56.211Z,14.70
2022-09-07T05:59:23.029Z,14.71
2022-09-07T06:01:50.321Z,14.72
2022-09-07T06:04:17.103Z,14.74
2022-09-07T06:06:54.593Z,14.76
2022-09-07T06:09:31.044Z,14.79
2022-09-07T06:11:57.785Z,14.79
2022-09-07T06:14:24.657Z,14.77
2022-09-07T06:16:51.502Z,14.74
2022-09-07T06:19:18.448Z,14.71
2022-09-07T06:21:45.194Z,14.70
2022-09-07T06:24:11.997Z,14.72
2022-09-07T06:26:38.836Z,14.72
2022-09-07T06:29:05.576Z,14.71
2022-09-07T06:31:32.700Z,14.72
2022-09-07T06:34:00.029Z,14.77
2022-09-07T06:36:27.552Z,14.77
2022-09-07T06:38:55.287Z,14.73
2022-09-07T06:44:18.495Z,14.80
2022-09-07T06:47:12.771Z,14.83
2022-09-07T06:49:39.602Z,14.90
2022-09-07T06:52:06.457Z,14.97
2022-09-07T06:57:20.153Z,15.09
2022-09-07T06:59:47.084Z,15.13
2022-09-07T07:02:16.400Z,15.16
2022-09-07T07:04:43.159Z,15.20
2022-09-07T07:07:11.764Z,15.23
2022-09-07T07:09:38.636Z,15.26
2022-09-07T07:12:05.711Z,15.32
2022-09-07T07:14:35.520Z,15.33
2022-09-07T07:17:03.393Z,15.34
2022-09-07T07:19:30.277Z,15.38
2022-09-07T07:24:43.660Z,15.38
2022-09-07T07:27:10.545Z,15.45
2022-09-07T07:29:37.370Z,15.52
2022-09-07T07:32:04.793Z,15.62
2022-09-07T07:34:31.600Z,15.77
2022-09-07T07:36:58.368Z,15.96
2022-09-07T07:42:11.985Z,16.34
2022-09-07T07:44:39.054Z,16.47
2022-09-07T07:47:06.956Z,16.65
2022-09-07T07:49:34.847Z,16.72
2022-09-07T08:08:07.772Z,17.83
2022-09-07T08:10:41.419Z,18.25
2022-09-07T08:13:08.215Z,18.41
2022-09-07T08:15:44.644Z,18.54
2022-09-07T08:18:18.814Z,18.65
2022-09-07T08:20:45.637Z,18.71
2022-09-07T08:23:12.919Z,18.78
2022-09-07T08:25:52.482Z,18.83
2022-09-07T08:28:20.763Z,18.79
2022-09-07T08:30:47.590Z,18.68
2022-09-07T08:33:14.869Z,18.66
2022-09-07T08:35:41.720Z,18.68
2022-09-07T08:38:08.683Z,18.72
2022-09-07T08:40:37.757Z,18.71
2022-09-07T08:43:25.759Z,18.68
2022-09-07T08:45:59.368Z,18.66
2022-09-07T08:48:33.888Z,18.63
2022-09-07T08:51:10.826Z,18.57
2022-09-07T08:53:45.148Z,18.49
2022-09-07T08:56:33.776Z,18.42
2022-09-07T08:59:13.224Z,18.37
2022-09-07T09:01:43.076Z,18.34
2022-09-07T09:04:22.427Z,18.33
2022-09-07T09:06:59.967Z,18.33
2022-09-07T09:09:26.657Z,18.33
2022-09-07T09:12:17.240Z,18.33
2022-09-07T09:15:07.508Z,18.35
2022-09-07T09:17:41.313Z,18.37
2022-09-07T09:20:20.401Z,18.36
2022-09-07T09:22:47.689Z,18.38
2022-09-07T09:25:28.651Z,18.42
2022-09-07T09:27:55.429Z,18.49
2022-09-07T09:30:24.045Z,18.58
2022-09-07T09:33:10.884Z,18.73
2022-09-07T09:35:38.773Z,18.91
2022-09-07T09:38:35.408Z,19.08
2022-09-07T09:41:08.292Z,19.27
2022-09-07T09:43:54.776Z,19.42
2022-09-07T09:46:33.537Z,19.48
2022-09-07T09:49:01.249Z,19.57
2022-09-07T09:54:29.351Z,19.78
2022-09-07T09:56:56.206Z,19.86
2022-09-07T10:05:37.990Z,20.03
2022-09-07T10:08:16.337Z,20.01
2022-09-07T10:11:13.693Z,19.99
2022-09-07T10:13:54.265Z,19.94
2022-09-07T10:16:38.874Z,19.90
2022-09-07T10:19:34.306Z,19.88
2022-09-07T10:22:20.175Z,19.83
2022-09-07T10:24:51.460Z,19.80
2022-09-07T10:27:31.193Z,19.77
2022-09-07T10:29:58.663Z,19.77
2022-09-07T10:32:43.789Z,19.75
2022-09-07T10:35:17.282Z,19.75
2022-09-07T10:37:56.644Z,19.79
2022-09-07T10:40:43.690Z,19.85
2022-09-07T10:43:29.093Z,19.97
2022-09-07T10:45:59.016Z,20.13
2022-09-07T10:48:39.004Z,20.31
2022-09-07T10:51:15.614Z,20.50
2022-09-07T10:56:55.544Z,21.00
2022-09-07T11:03:25.559Z,21.75
2022-09-07T11:06:19.755Z,22.19
2022-09-07T11:09:22.158Z,22.49
2022-09-07T11:12:03.039Z,22.76
2022-09-07T11:14:38.767Z,22.94
2022-09-07T11:17:42.674Z,23.09
2022-09-07T11:20:19.688Z,23.26
2022-09-07T11:22:52.792Z,23.41
2022-09-07T11:26:01.871Z,23.49
2022-09-07T11:28:46.291Z,23.57
2022-09-07T11:31:32.107Z,23.63
2022-09-07T11:34:25.423Z,23.74
2022-09-07T11:37:12.563Z,23.81
2022-09-07T11:40:06.474Z,24.00
2022-09-07T11:42:55.319Z,24.27
2022-09-07T11:45:36.330Z,24.50
2022-09-07T11:48:21.714Z,24.70
2022-09-07T11:51:04.547Z,25.00
2022-09-07T11:53:45.151Z,25.27
2022-09-07T11:56:20.664Z,25.60
2022-09-07T11:58:53.371Z,25.91
2022-09-07T12:01:39.725Z,26.11
2022-09-07T12:04:28.818Z,26.36
2022-09-07T12:08:03.167Z,26.65
2022-09-07T12:10:37.260Z,27.05
2022-09-07T12:13:30.495Z,27.20
2022-09-07T12:19:04.395Z,27.12
2022-09-07T12:21:56.050Z,27.20
2022-09-07T12:24:39.324Z,27.32
2022-09-07T12:27:21.136Z,27.49
2022-09-07T12:29:49.031Z,27.73
2022-09-07T12:32:54.894Z,28.02
2022-09-07T12:35:31.619Z,28.57
2022-09-07T12:38:02.118Z,29.07
2022-09-07T12:40:29.212Z,29.53
2022-09-07T12:43:31.160Z,30.00
2022-09-07T12:46:00.207Z,30.55
2022-09-07T12:48:46.139Z,30.97
2022-09-07T12:54:26.804Z,32.08
2022-09-07T13:00:11.268Z,32.79
2022-09-07T13:09:31.678Z,33.63
2022-09-07T13:12:00.657Z,33.83
2022-09-07T13:14:29.074Z,34.02
2022-09-07T13:17:38.315Z,34.25
2022-09-07T13:20:20.259Z,34.34
2022-09-07T13:22:47.156Z,34.43
2022-09-07T13:25:20.097Z,34.73
2022-09-07T13:27:54.029Z,34.95
2022-09-07T13:30:32.684Z,35.12
2022-09-07T13:33:24.577Z,35.22
2022-09-07T13:35:59.649Z,35.29
2022-09-07T13:38:29.195Z,35.30
2022-09-07T13:41:07.466Z,35.30
2022-09-07T13:43:34.527Z,35.42
2022-09-07T13:46:16.416Z,35.50
2022-09-07T13:48:50.884Z,35.48
2022-09-07T13:51:45.041Z,34.67
2022-09-07T13:54:20.621Z,33.75
2022-09-07T13:57:09.122Z,33.04
2022-09-07T13:59:36.175Z,32.92
2022-09-07T14:02:03.142Z,32.12
2022-09-07T14:04:41.825Z,31.41
2022-09-07T14:07:19.192Z,31.16
2022-09-07T14:09:48.391Z,31.63
2022-09-07T14:12:29.925Z,32.18
2022-09-07T14:15:20.676Z,32.51
2022-09-07T14:17:49.084Z,32.12
2022-09-07T14:20:17.833Z,32.12
2022-09-07T14:22:46.701Z,32.33
2022-09-07T14:25:22.093Z,32.07
2022-09-07T14:27:49.237Z,31.39
2022-09-07T14:30:19.630Z,30.88
2022-09-07T14:32:48.534Z,30.29
2022-09-07T14:35:24.544Z,29.93
2022-09-07T14:37:52.163Z,30.05
2022-09-07T14:40:21.914Z,30.40
2022-09-07T14:42:50.729Z,30.27
2022-09-07T14:45:24.198Z,30.33
2022-09-07T14:47:55.466Z,30.86
2022-09-07T14:50:41.438Z,31.51
2022-09-07T14:56:12.710Z,31.82
2022-09-07T14:58:39.494Z,31.98
2022-09-07T15:01:42.325Z,31.41
2022-09-07T15:04:18.591Z,30.44
2022-09-07T15:07:01.808Z,29.58
2022-09-07T15:10:32.267Z,28.73
2022-09-07T15:13:01.371Z,27.94
2022-09-07T15:15:41.113Z,27.30
2022-09-07T15:18:45.548Z,26.73
2022-09-07T15:21:12.376Z,26.15
2022-09-07T15:23:41.299Z,25.72
2022-09-07T15:27:01.936Z,25.29
2022-09-07T15:29:15.731Z,24.82
2022-09-07T15:31:47.339Z,24.45
2022-09-07T15:34:26.282Z,24.17
2022-09-07T15:36:59.790Z,23.83
2022-09-07T15:39:31.113Z,23.56
2022-09-07T15:42:00.611Z,23.31
2022-09-07T15:44:46.575Z,23.06
2022-09-07T15:50:00.597Z,22.62
2022-09-07T15:52:28.151Z,22.43
2022-09-07T15:54:58.964Z,22.28
2022-09-07T16:00:16.351Z,22.35
2022-09-07T16:05:33.158Z,23.27
2022-09-07T16:10:55.810Z,24.13
2022-09-07T16:13:34.130Z,24.37
2022-09-07T16:16:07.354Z,24.50
2022-09-07T16:18:35.084Z,24.58
2022-09-07T16:23:58.016Z,24.56
2022-09-07T16:26:39.313Z,24.51
2022-09-07T16:29:06.275Z,24.38
2022-09-07T16:31:35.950Z,24.19
2022-09-07T16:34:03.343Z,23.99
2022-09-07T16:36:30.666Z,23.73
2022-09-07T16:38:59.858Z,23.43
2022-09-07T16:41:31.433Z,23.07
2022-09-07T16:43:59.064Z,22.70
2022-09-07T16:46:29.937Z,22.35
2022-09-07T16:48:56.731Z,22.02
2022-09-07T16:51:24.642Z,21.71
2022-09-07T16:53:53.935Z,21.44
2022-09-07T16:56:25.859Z,21.15
2022-09-07T16:58:58.027Z,20.87
2022-09-07T17:01:27.706Z,20.58
2022-09-07T17:03:54.990Z,20.34
2022-09-07T17:06:24.332Z,20.16
2022-09-07T17:08:52.291Z,20.01
2022-09-07T17:11:22.627Z,19.85
2022-09-07T17:13:50.943Z,19.70
2022-09-07T17:16:26.828Z,19.55
2022-09-07T17:21:44.390Z,19.23
2022-09-07T17:24:20.773Z,19.06
2022-09-07T17:26:54.324Z,18.93
2022-09-07T17:29:21.924Z,18.77
2022-09-07T17:34:35.833Z,18.54
2022-09-07T17:37:02.977Z,18.45
2022-09-07T17:39:30.455Z,18.36
2022-09-07T17:41:58.452Z,18.28
2022-09-07T17:44:52.770Z,18.22
2022-09-07T17:47:30.176Z,18.19
2022-09-07T17:49:57.091Z,18.14
2022-09-07T17:52:46.081Z,18.11
2022-09-07T17:55:13.087Z,18.05
2022-09-07T17:57:39.842Z,17.97
2022-09-07T18:00:11.394Z,17.89
2022-09-07T18:02:38.886Z,17.81
2022-09-07T18:05:07.100Z,17.78
2022-09-07T18:07:34.768Z,17.74
2022-09-07T18:10:02.477Z,17.70
2022-09-07T18:12:29.306Z,17.65
2022-09-07T18:14:56.149Z,17.61
2022-09-07T18:17:22.953Z,17.56
2022-09-07T18:19:50.636Z,17.51
2022-09-07T18:22:17.442Z,17.47
2022-09-07T18:24:44.392Z,17.45
2022-09-07T18:27:11.384Z,17.41
2022-09-07T18:29:38.145Z,17.39
2022-09-07T18:32:08.692Z,17.36
2022-09-07T18:34:40.648Z,17.32
2022-09-07T18:37:08.716Z,17.32
2022-09-07T18:39:36.333Z,17.33
2022-09-07T18:42:03.282Z,17.33
2022-09-07T18:47:23.367Z,17.34
2022-09-07T18:49:55.212Z,17.32
2022-09-07T18:55:10.180Z,17.29
2022-09-07T18:57:37.584Z,17.28
2022-09-07T19:00:09.431Z,17.26
2022-09-07T19:02:37.383Z,17.25
2022-09-07T19:07:51.972Z,17.27
2022-09-07T19:10:24.400Z,17.26
2022-09-07T19:12:51.282Z,17.26
2022-09-07T19:15:20.588Z,17.24
2022-09-07T19:17:47.381Z,17.22
2022-09-07T19:20:14.262Z,17.17
2022-09-07T19:22:42.232Z,17.15
2022-09-07T19:25:09.498Z,17.12
2022-09-07T19:27:36.352Z,17.11
2022-09-07T19:30:08.989Z,17.09
2022-09-07T19:32:35.821Z,17.05
2022-09-07T19:35:02.788Z,17.03
2022-09-07T19:37:31.771Z,16.99
2022-09-07T19:39:58.609Z,16.93
2022-09-07T19:42:25.790Z,16.84
2022-09-07T19:44:53.804Z,16.79
2022-09-07T19:47:21.382Z,16.74
2022-09-07T19:49:48.152Z,16.69
2022-09-07T19:52:14.935Z,16.65
2022-09-07T19:54:41.718Z,16.59
2022-09-07T19:57:08.418Z,16.53
2022-09-07T19:59:35.187Z,16.48
2022-09-07T20:02:01.979Z,16.43
2022-09-07T20:04:29.283Z,16.39
2022-09-07T20:06:56.419Z,16.34
2022-09-07T20:09:24.444Z,16.31
2022-09-07T20:11:51.162Z,16.29
2022-09-07T20:14:18.630Z,16.28
2022-09-07T20:16:45.561Z,16.26
2022-09-07T20:19:14.120Z,16.24
2022-09-07T20:21:41.047Z,16.22
2022-09-07T20:24:09.974Z,16.17
2022-09-07T20:26:36.825Z,16.13
2022-09-07T20:29:26.152Z,16.09
2022-09-07T20:31:53.163Z,16.06
2022-09-07T20:34:19.999Z,16.07
2022-09-07T20:36:49.116Z,16.08
2022-09-07T20:39:16.319Z,16.12
2022-09-07T20:41:43.866Z,16.09
2022-09-07T20:44:10.656Z,16.04
2022-09-07T20:46:37.460Z,15.99
2022-09-07T20:49:09.340Z,15.96
2022-09-07T20:51:36.174Z,15.94
2022-09-07T20:54:03.347Z,15.94
2022-09-07T20:56:30.730Z,15.95
2022-09-07T20:58:59.684Z,15.95
2022-09-07T21:01:28.265Z,15.93
2022-09-07T21:03:57.381Z,15.88
2022-09-07T21:06:26.974Z,15.84
2022-09-07T21:08:54.694Z,15.82
2022-09-07T21:11:27.031Z,15.81
2022-09-07T21:14:06.969Z,15.79
2022-09-07T21:16:35.026Z,15.77
2022-09-07T21:19:04.293Z,15.74
2022-09-07T21:21:38.560Z,15.71
2022-09-07T21:24:14.331Z,15.70
2022-09-07T21:26:41.304Z,15.69
2022-09-07T21:29:14.907Z,15.67
2022-09-07T21:31:41.992Z,15.66
2022-09-07T21:34:10.082Z,15.63
2022-09-07T21:37:03.062Z,15.62
2022-09-07T21:39:30.063Z,15.61
2022-09-07T21:41:57.073Z,15.58
2022-09-07T21:44:25.195Z,15.54
2022-09-07T21:46:51.957Z,15.50
2022-09-07T21:49:18.681Z,15.45
2022-09-07T21:51:45.423Z,15.40
2022-09-07T21:54:12.247Z,15.35
2022-09-07T21:56:42.106Z,15.30
2022-09-07T21:59:12.852Z,15.25
2022-09-07T22:01:40.354Z,15.20
2022-09-07T22:04:07.143Z,15.15
2022-09-07T22:06:34.568Z,15.10
2022-09-07T22:09:02.127Z,15.06
2022-09-07T22:11:29.701Z,15.03
2022-09-07T22:14:02.060Z,15.01
2022-09-07T22:16:29.726Z,14.97
2022-09-07T22:19:01.175Z,14.95
2022-09-07T22:21:29.383Z,14.93
2022-09-07T22:23:58.917Z,14.89
2022-09-07T22:26:28.286Z,14.86
2022-09-07T22:28:59.433Z,14.84
2022-09-07T22:31:31.979Z,14.81
2022-09-07T22:34:00.918Z,14.77
2022-09-07T22:36:35.722Z,14.73
2022-09-07T22:39:06.654Z,14.69
2022-09-07T22:41:36.507Z,14.66
2022-09-07T22:44:04.517Z,14.63
2022-09-07T22:46:35.430Z,14.63
2022-09-07T22:49:03.287Z,14.60
2022-09-07T22:51:30.100Z,14.58
2022-09-07T22:53:57.358Z,14.58
2022-09-07T22:56:27.798Z,14.56
2022-09-07T22:58:56.035Z,14.55
2022-09-07T23:01:25.366Z,14.55
2022-09-07T23:03:52.924Z,14.55
2022-09-07T23:06:24.449Z,14.53
2022-09-07T23:08:52.615Z,14.50
2022-09-07T23:11:38.634Z,14.45
2022-09-07T23:14:11.022Z,14.44
2022-09-07T23:16:38.644Z,14.39
2022-09-07T23:19:05.538Z,14.36
2022-09-07T23:21:32.574Z,14.31
2022-09-07T23:23:59.951Z,14.28
2022-09-07T23:26:29.081Z,14.24
2022-09-07T23:28:58.725Z,14.21
2022-09-07T23:31:27.037Z,14.18
2022-09-07T23:33:55.616Z,14.17
2022-09-07T23:36:22.628Z,14.19
2022-09-07T23:38:53.317Z,14.16
2022-09-07T23:41:20.549Z,14.13
2022-09-07T23:43:47.962Z,14.10
2022-09-07T23:46:15.715Z,14.07
2022-09-07T23:48:43.985Z,14.05
2022-09-07T23:51:11.859Z,14.02
2022-09-07T23:53:38.741Z,13.99
2022-09-07T23:56:05.693Z,13.96
2022-09-07T23:58:32.376Z,13.93
